createdAt,value
2023-01-26T00:00:25.999Z,5.57
2023-01-26T00:05:26.736Z,5.62
2023-01-26T00:10:27.494Z,6.37
2023-01-26T00:15:28.355Z,6.15
2023-01-26T00:20:29.880Z,6.00
2023-01-26T00:25:30.645Z,5.15
2023-01-26T00:30:31.570Z,6.10
2023-01-26T00:35:32.419Z,4.87
2023-01-26T00:40:33.166Z,4.65
2023-01-26T00:45:35.100Z,3.50
2023-01-26T00:50:39.592Z,3.30
2023-01-26T00:55:40.362Z,3.50
2023-01-26T01:00:41.257Z,3.40
2023-01-26T01:05:42.000Z,4.20
2023-01-26T01:10:42.748Z,3.42
2023-01-26T01:15:43.504Z,4.15
2023-01-26T01:20:44.511Z,3.65
2023-01-26T01:25:45.552Z,3.92
2023-01-26T01:30:46.403Z,3.40
2023-01-26T01:35:59.196Z,3.30
2023-01-26T01:41:00.170Z,3.55
2023-01-26T01:46:06.651Z,3.92
2023-01-26T01:51:15.609Z,3.78
2023-01-26T01:56:22.524Z,4.45
2023-01-26T02:01:24.022Z,4.40
2023-01-26T02:06:34.261Z,5.12
2023-01-26T02:11:44.181Z,4.15
2023-01-26T02:16:44.994Z,6.50
2023-01-26T02:21:49.424Z,4.22
2023-01-26T02:26:53.774Z,4.28
2023-01-26T02:31:55.048Z,4.75
2023-01-26T02:36:58.829Z,5.00
2023-01-26T02:42:18.477Z,4.07
2023-01-26T02:47:19.806Z,5.60
2023-01-26T02:52:25.580Z,7.00
2023-01-26T02:57:31.271Z,5.47
2023-01-26T03:02:32.241Z,6.57
2023-01-26T03:07:33.331Z,11.02
2023-01-26T03:12:34.185Z,12.05
2023-01-26T03:17:35.007Z,7.03
2023-01-26T03:22:56.218Z,8.18
2023-01-26T03:27:58.236Z,8.07
2023-01-26T03:32:59.582Z,8.03
2023-01-26T03:38:01.043Z,8.30
2023-01-26T03:43:32.773Z,10.20
2023-01-26T03:48:52.457Z,9.40
2023-01-26T03:54:12.026Z,9.15
2023-01-26T03:59:14.483Z,10.20
2023-01-26T04:04:34.267Z,11.05
2023-01-26T04:09:36.688Z,10.98
2023-01-26T04:14:56.089Z,10.60
2023-01-26T04:20:17.398Z,10.60
2023-01-26T04:25:20.472Z,10.80
2023-01-26T04:30:21.500Z,13.23
2023-01-26T04:35:23.092Z,13.38
2023-01-26T04:40:24.120Z,11.38
2023-01-26T04:45:25.120Z,9.95
2023-01-26T04:50:27.687Z,9.73
2023-01-26T04:55:28.646Z,8.55
2023-01-26T05:00:29.843Z,8.65
2023-01-26T05:05:38.772Z,8.65
2023-01-26T05:10:39.760Z,8.65
2023-01-26T05:15:53.829Z,10.13
2023-01-26T05:21:10.127Z,8.80
2023-01-26T05:26:18.969Z,9.40
2023-01-26T05:31:29.609Z,10.07
2023-01-26T05:36:30.563Z,9.93
2023-01-26T05:41:31.456Z,9.10
2023-01-26T05:46:53.402Z,9.32
2023-01-26T05:51:54.381Z,11.38
2023-01-26T05:56:56.767Z,10.90
2023-01-26T06:01:59.962Z,11.73
2023-01-26T06:07:01.477Z,13.70
2023-01-26T06:12:17.408Z,13.82
2023-01-26T06:17:36.821Z,12.13
2023-01-26T06:22:40.661Z,12.07
2023-01-26T06:27:41.635Z,13.45
2023-01-26T06:32:48.631Z,13.45
2023-01-26T06:37:50.648Z,15.60
2023-01-26T06:42:51.812Z,20.27
2023-01-26T06:47:53.639Z,16.83
2023-01-26T06:52:58.108Z,17.98
2023-01-26T06:59:20.708Z,14.68
2023-01-26T07:04:40.280Z,14.02
2023-01-26T07:09:41.640Z,13.27
2023-01-26T07:14:42.473Z,12.37
2023-01-26T07:19:43.396Z,12.55
2023-01-26T07:24:44.155Z,14.20
2023-01-26T07:29:45.838Z,13.50
2023-01-26T07:34:47.940Z,13.27
2023-01-26T07:39:48.754Z,14.27
2023-01-26T07:44:49.515Z,15.20
2023-01-26T07:49:50.399Z,13.38
2023-01-26T07:54:51.257Z,15.52
2023-01-26T07:59:51.970Z,15.57
2023-01-26T08:04:52.854Z,16.23
2023-01-26T08:09:53.743Z,18.37
2023-01-26T08:14:54.509Z,16.60
2023-01-26T08:19:55.342Z,15.05
2023-01-26T08:24:56.143Z,13.90
2023-01-26T08:29:56.874Z,14.75
2023-01-26T08:34:57.905Z,14.60
2023-01-26T08:39:58.761Z,13.35
2023-01-26T08:44:59.558Z,15.57
2023-01-26T08:50:00.286Z,14.90
2023-01-26T08:55:03.855Z,13.32
2023-01-26T09:00:06.517Z,15.60
2023-01-26T09:05:08.685Z,15.73
2023-01-26T09:10:11.220Z,16.63
2023-01-26T09:15:12.204Z,15.02
2023-01-26T09:20:13.350Z,15.77
2023-01-26T09:25:14.640Z,17.37
2023-01-26T09:30:16.149Z,14.75
2023-01-26T09:35:17.318Z,15.02
2023-01-26T09:40:39.007Z,18.92
2023-01-26T09:45:56.830Z,16.33
2023-01-26T09:51:11.520Z,15.93
2023-01-26T09:56:18.486Z,13.93
2023-01-26T10:03:17.727Z,13.80
2023-01-26T10:08:22.511Z,14.15
2023-01-26T10:13:23.983Z,12.57
2023-01-26T10:18:35.188Z,12.77
2023-01-26T10:23:36.079Z,12.52
2023-01-26T10:28:37.041Z,11.88
2023-01-26T10:33:42.535Z,12.70
2023-01-26T10:38:44.484Z,11.30
2023-01-26T10:45:44.058Z,9.15
2023-01-26T10:50:46.475Z,5.90
2023-01-26T10:56:12.723Z,5.12
2023-01-26T11:01:17.785Z,5.10
2023-01-26T11:06:18.633Z,5.70
2023-01-26T11:11:29.553Z,5.60
2023-01-26T11:16:31.428Z,5.15
2023-01-26T11:21:57.776Z,5.45
2023-01-26T11:27:27.358Z,4.62
2023-01-26T11:34:06.306Z,5.40
2023-01-26T11:43:33.195Z,4.05
2023-01-26T11:49:46.543Z,3.85
2023-01-26T11:58:04.522Z,4.07
2023-01-26T12:03:17.375Z,4.03
2023-01-26T12:10:12.383Z,3.97
2023-01-26T12:15:22.275Z,3.72
2023-01-26T12:20:41.016Z,5.37
2023-01-26T12:25:48.522Z,3.50
2023-01-26T12:31:16.448Z,3.97
2023-01-26T12:36:45.299Z,4.43
2023-01-26T12:43:38.889Z,5.30
2023-01-26T12:48:49.769Z,9.07
2023-01-26T12:54:00.229Z,4.78
2023-01-26T12:59:13.567Z,4.97
2023-01-26T13:04:41.688Z,6.40
2023-01-26T13:15:13.803Z,10.93
2023-01-26T13:20:26.867Z,7.25
2023-01-26T13:25:31.348Z,7.93
2023-01-26T13:31:03.404Z,8.90
2023-01-26T13:36:14.056Z,11.82
2023-01-26T13:41:20.168Z,10.70
2023-01-26T13:46:39.117Z,9.50
2023-01-26T13:51:43.109Z,10.68
2023-01-26T13:57:05.677Z,14.65
2023-01-26T14:02:20.872Z,11.63
2023-01-26T14:07:26.430Z,10.40
2023-01-26T14:12:34.296Z,9.75
2023-01-26T14:17:46.383Z,9.77
2023-01-26T14:23:35.113Z,10.43
2023-01-26T14:28:41.597Z,10.15
2023-01-26T14:33:42.929Z,12.00
2023-01-26T14:38:46.980Z,10.50
2023-01-26T14:43:49.028Z,12.65
2023-01-26T14:48:59.345Z,10.40
2023-01-26T14:54:03.994Z,20.35
2023-01-26T14:59:07.715Z,20.45
2023-01-26T15:04:35.609Z,16.73
2023-01-26T15:09:36.353Z,10.90
2023-01-26T15:14:48.346Z,24.85
2023-01-26T15:19:49.161Z,16.02
2023-01-26T15:31:41.495Z,15.20
2023-01-26T15:36:51.678Z,13.57
2023-01-26T15:42:28.108Z,12.05
2023-01-26T15:47:28.884Z,12.85
2023-01-26T15:52:29.927Z,10.38
2023-01-26T15:57:31.690Z,11.15
2023-01-26T16:02:33.202Z,13.05
2023-01-26T16:07:34.255Z,10.30
2023-01-26T16:12:34.996Z,15.13
2023-01-26T16:17:35.774Z,11.23
2023-01-26T16:22:36.507Z,9.95
2023-01-26T16:27:37.375Z,9.93
2023-01-26T16:32:38.177Z,9.38
2023-01-26T16:37:40.719Z,9.20
2023-01-26T16:42:45.876Z,12.68
2023-01-26T16:47:54.484Z,11.23
2023-01-26T16:52:55.200Z,10.38
2023-01-26T16:57:55.994Z,10.40
2023-01-26T17:02:56.717Z,14.00
2023-01-26T17:07:58.104Z,11.82
2023-01-26T17:12:59.247Z,11.65
2023-01-26T17:18:00.907Z,14.73
2023-01-26T17:23:01.638Z,15.32
2023-01-26T17:28:02.617Z,15.57
2023-01-26T17:33:03.389Z,18.30
2023-01-26T17:38:04.736Z,17.08
2023-01-26T17:43:05.524Z,14.43
2023-01-26T17:48:06.309Z,14.18
2023-01-26T17:53:07.093Z,15.05
2023-01-26T17:58:09.996Z,13.65
2023-01-26T18:03:11.241Z,8.43
2023-01-26T18:08:12.101Z,21.58
2023-01-26T18:13:13.577Z,9.20
2023-01-26T18:18:14.393Z,9.27
2023-01-26T18:23:15.882Z,8.38
2023-01-26T18:28:17.013Z,8.95
2023-01-26T18:33:18.086Z,6.28
2023-01-26T18:38:19.476Z,6.90
2023-01-26T18:43:20.312Z,7.55
2023-01-26T18:48:21.113Z,7.25
2023-01-26T18:53:23.021Z,8.43
2023-01-26T18:58:23.799Z,7.90
2023-01-26T19:03:24.736Z,7.12
2023-01-26T19:08:26.369Z,5.37
2023-01-26T19:13:27.114Z,6.45
2023-01-26T19:18:28.627Z,5.07
2023-01-26T19:23:29.601Z,7.70
2023-01-26T19:28:30.349Z,4.62
2023-01-26T19:33:31.586Z,5.60
2023-01-26T19:38:34.138Z,3.47
2023-01-26T19:43:35.225Z,4.37
2023-01-26T19:48:36.053Z,4.68
2023-01-26T19:53:39.607Z,3.72
2023-01-26T19:58:40.388Z,3.70
2023-01-26T20:03:41.159Z,3.90
2023-01-26T20:08:42.963Z,3.37
2023-01-26T20:13:43.757Z,3.92
2023-01-26T20:18:44.801Z,4.37
2023-01-26T20:23:54.013Z,11.50
2023-01-26T20:28:58.266Z,5.70
2023-01-26T20:34:00.771Z,9.63
2023-01-26T20:39:02.793Z,9.53
2023-01-26T20:44:05.241Z,5.12
2023-01-26T20:49:09.080Z,9.30
2023-01-26T20:54:14.877Z,11.68
2023-01-26T20:59:15.719Z,6.95
2023-01-26T21:04:16.521Z,30.83
2023-01-26T21:09:18.151Z,8.93
2023-01-26T21:14:18.876Z,6.93
2023-01-26T21:19:20.412Z,5.90
2023-01-26T21:24:22.352Z,5.35
2023-01-26T21:29:23.220Z,14.57
2023-01-26T21:34:23.957Z,5.62
2023-01-26T21:39:25.219Z,5.70
2023-01-26T21:44:28.188Z,5.30
2023-01-26T21:49:29.165Z,4.45
2023-01-26T21:54:31.416Z,3.92
2023-01-26T21:59:32.273Z,3.93
2023-01-26T22:04:33.050Z,3.55
2023-01-26T22:09:35.457Z,3.45
2023-01-26T22:14:36.197Z,3.67
2023-01-26T22:19:36.958Z,3.80
2023-01-26T22:24:37.678Z,3.08
2023-01-26T22:29:39.272Z,4.22
2023-01-26T22:34:40.025Z,3.70
2023-01-26T22:39:42.887Z,4.03
2023-01-26T22:44:43.619Z,3.95
2023-01-26T22:49:44.588Z,4.93
2023-01-26T22:54:45.293Z,5.05
2023-01-26T22:59:46.082Z,5.12
2023-01-26T23:04:46.827Z,5.12
2023-01-26T23:09:47.980Z,5.57
2023-01-26T23:14:48.710Z,5.30
2023-01-26T23:19:49.479Z,5.95
2023-01-26T23:25:08.802Z,5.57
2023-01-26T23:30:11.041Z,6.68
2023-01-26T23:35:12.093Z,6.57
2023-01-26T23:40:14.512Z,6.87
2023-01-26T23:45:15.800Z,7.80
2023-01-26T23:50:16.707Z,8.10
2023-01-26T23:55:18.205Z,7.00
